Time;durP1;ratioP1;P1;durP2;ratioP2;P2;SDS_P1;SDS_P2;PMS_P1;PMS_P2;Temp;Humidity;BMP_temperature;BMP_pressure;BME280_temperature;BME280_humidity;BME280_pressure;Samples;Min_cycle;Max_cycle;Signal;HPM_P1;HPM_P2
2023/01/12 00:01:38;;;;;;;2.75;1.35;;;16.10;58.00;;;;;;5053435;28;20179;-61
2023/01/12 00:04:04;;;;;;;3.85;1.40;;;16.00;58.00;;;;;;5052821;28;20182;-61
2023/01/12 00:06:33;;;;;;;3.80;1.60;;;16.00;58.00;;;;;;5053391;28;20179;-61
2023/01/12 00:09:01;;;;;;;2.78;1.30;;;16.00;57.90;;;;;;5053409;28;20175;-60
2023/01/12 00:11:26;;;;;;;5.40;1.90;;;16.00;58.00;;;;;;5052638;28;20177;-60
2023/01/12 00:13:52;;;;;;;2.38;1.08;;;16.00;58.00;;;;;;5053215;28;20262;-60
2023/01/12 00:16:34;;;;;;;2.72;1.20;;;16.00;58.00;;;;;;5053279;28;20249;-60
2023/01/12 00:19:05;;;;;;;4.07;1.35;;;16.00;58.00;;;;;;5052528;28;20580;-60
2023/01/12 00:21:38;;;;;;;4.18;1.52;;;16.00;58.00;;;;;;5052923;28;20276;-61
2023/01/12 00:24:06;;;;;;;2.45;1.35;;;16.00;58.00;;;;;;5052421;28;20228;-60
2023/01/12 00:26:31;;;;;;;3.97;1.80;;;16.00;58.00;;;;;;5053146;28;20179;-60
2023/01/12 00:28:57;;;;;;;3.70;1.30;;;16.00;58.00;;;;;;5053231;28;20194;-60
2023/01/12 00:31:22;;;;;;;3.40;1.10;;;16.00;58.00;;;;;;5052524;28;20174;-60
2023/01/12 00:33:48;;;;;;;2.25;1.30;;;16.00;58.00;;;;;;5052800;28;20254;-61
2023/01/12 00:36:13;;;;;;;2.78;1.20;;;16.00;58.00;;;;;;5052930;28;20258;-61
2023/01/12 00:38:39;;;;;;;3.75;1.35;;;15.90;58.00;;;;;;5051865;28;20559;-61
2023/01/12 00:41:08;;;;;;;2.58;1.65;;;15.90;58.00;;;;;;5053077;28;20615;-61
2023/01/12 00:46:18;;;;;;;3.25;1.50;;;16.00;58.00;;;;;;5052212;28;20272;-61
2023/01/12 00:48:44;;;;;;;3.97;1.40;;;15.90;58.00;;;;;;5052549;28;20225;-60
2023/01/12 00:51:10;;;;;;;6.55;1.35;;;15.90;58.00;;;;;;5052810;28;20187;-60
2023/01/12 00:53:35;;;;;;;1.95;1.25;;;15.90;58.00;;;;;;5051882;28;20175;-60
2023/01/12 00:56:01;;;;;;;1.85;1.00;;;15.90;58.00;;;;;;5052896;28;20182;-60
2023/01/12 00:58:27;;;;;;;2.17;1.42;;;15.90;58.10;;;;;;5052748;28;20179;-61
2023/01/12 01:00:53;;;;;;;3.83;1.17;;;15.90;58.10;;;;;;5051763;28;20171;-61
2023/01/12 01:03:19;;;;;;;3.60;1.30;;;15.90;58.00;;;;;;5052794;28;20258;-61
2023/01/12 01:05:44;;;;;;;2.65;1.42;;;15.80;58.00;;;;;;5052202;28;20175;-61
2023/01/12 01:08:10;;;;;;;4.45;1.48;;;15.90;58.00;;;;;;5052248;28;20195;-61
2023/01/12 01:10:35;;;;;;;2.28;1.27;;;15.90;58.10;;;;;;5052604;28;20175;-60
2023/01/12 01:13:01;;;;;;;2.30;1.40;;;15.90;58.10;;;;;;5052700;28;20546;-61
2023/01/12 01:15:26;;;;;;;3.47;1.40;;;15.80;58.10;;;;;;5052026;28;20540;-61
2023/01/12 01:17:52;;;;;;;3.22;1.55;;;15.80;58.00;;;;;;5052326;28;20666;-61
2023/01/12 01:20:17;;;;;;;2.20;1.13;;;15.80;58.10;;;;;;5054332;28;20709;-61
2023/01/12 01:22:43;;;;;;;2.20;1.38;;;15.80;58.10;;;;;;5056478;28;20232;-60
2023/01/12 01:25:09;;;;;;;2.97;1.30;;;15.90;58.20;;;;;;5056697;28;20182;-60
2023/01/12 01:27:34;;;;;;;3.17;1.30;;;15.80;58.10;;;;;;5055600;28;20167;-60
2023/01/12 01:30:00;;;;;;;1.90;1.25;;;15.80;58.10;;;;;;5056767;28;20175;-60
2023/01/12 01:32:25;;;;;;;3.65;1.38;;;15.80;58.10;;;;;;5056416;28;20174;-60
2023/01/12 01:34:51;;;;;;;3.63;1.27;;;15.80;58.10;;;;;;5055454;28;20183;-61
2023/01/12 01:37:17;;;;;;;2.72;1.35;;;15.80;58.20;;;;;;5056567;28;20177;-61
2023/01/12 01:39:42;;;;;;;1.92;1.52;;;15.80;58.10;;;;;;5056103;28;20214;-61
2023/01/12 01:42:26;;;;;;;2.78;1.20;;;15.80;58.20;;;;;;5055674;28;20183;-61
2023/01/12 01:44:53;;;;;;;2.95;1.40;;;15.80;58.20;;;;;;5054948;28;20233;-60
2023/01/12 01:47:25;;;;;;;2.38;1.60;;;15.80;58.20;;;;;;5055021;28;20221;-61
2023/01/12 01:49:53;;;;;;;4.50;1.73;;;15.80;58.20;;;;;;5055356;28;20203;-60
2023/01/12 01:52:24;;;;;;;3.95;1.92;;;15.80;58.30;;;;;;5055077;28;20179;-60
2023/01/12 01:55:05;;;;;;;4.35;1.70;;;15.80;58.30;;;;;;5055929;28;20179;-60
2023/01/12 01:57:43;;;;;;;3.55;1.60;;;15.70;58.20;;;;;;5055090;28;20585;-60
2023/01/12 02:00:15;;;;;;;4.22;1.30;;;15.70;58.30;;;;;;5054976;28;20224;-60
2023/01/12 02:02:41;;;;;;;2.70;1.45;;;15.70;58.30;;;;;;5055087;28;20175;-61
2023/01/12 02:05:07;;;;;;;5.13;1.65;;;15.80;58.30;;;;;;5054971;28;20604;-60
2023/01/12 02:07:33;;;;;;;2.17;1.42;;;15.80;58.30;;;;;;5055604;28;20202;-61
2023/01/12 02:09:58;;;;;;;4.47;1.55;;;15.70;58.30;;;;;;5055048;28;20266;-60
2023/01/12 02:18:23;;;;;;;4.07;2.00;;;15.70;58.30;;;;;;5054602;28;20170;-60
2023/01/12 02:21:04;;;;;;;2.78;1.60;;;15.70;58.30;;;;;;5053769;28;20643;-60
2023/01/12 02:23:41;;;;;;;3.30;1.60;;;15.70;58.30;;;;;;5053803;28;20173;-60
2023/01/12 02:26:25;;;;;;;3.30;1.30;;;15.70;58.30;;;;;;5055405;28;20175;-61
2023/01/12 02:29:20;;;;;;;4.10;1.40;;;15.70;58.30;;;;;;5055155;28;20202;-60
2023/01/12 02:31:57;;;;;;;4.32;1.75;;;15.70;58.40;;;;;;5053025;28;20179;-61
2023/01/12 02:34:43;;;;;;;4.18;1.40;;;15.70;58.70;;;;;;5055419;28;20266;-60
2023/01/12 02:37:27;;;;;;;3.78;1.58;;;15.70;58.40;;;;;;5054070;28;20214;-60
2023/01/12 02:40:03;;;;;;;3.50;1.35;;;15.70;58.40;;;;;;5054276;28;20221;-61
2023/01/12 02:42:46;;;;;;;3.38;1.40;;;15.70;58.40;;;;;;5054196;28;20179;-61
2023/01/12 02:45:23;;;;;;;3.75;1.90;;;15.70;58.40;;;;;;5053508;28;20183;-60
2023/01/12 02:48:03;;;;;;;3.28;1.60;;;15.70;58.40;;;;;;5054578;28;20195;-61
2023/01/12 02:50:50;;;;;;;2.80;1.75;;;15.60;58.40;;;;;;5054065;28;20175;-60
2023/01/12 02:53:28;;;;;;;3.08;1.90;;;15.60;58.40;;;;;;5053180;28;20749;-60
2023/01/12 02:55:53;;;;;;;3.17;1.65;;;15.60;58.40;;;;;;5053509;28;20171;-60
2023/01/12 02:58:20;;;;;;;4.20;1.80;;;15.70;58.50;;;;;;5053622;28;20225;-60
2023/01/12 03:00:48;;;;;;;3.40;1.65;;;15.60;58.40;;;;;;5052878;28;20185;-61
2023/01/12 03:03:15;;;;;;;3.65;1.73;;;15.60;58.40;;;;;;5053688;28;20175;-60
2023/01/12 03:05:41;;;;;;;3.75;1.38;;;15.60;58.40;;;;;;5053857;28;20210;-60
2023/01/12 03:08:08;;;;;;;3.33;1.20;;;15.60;58.50;;;;;;5054631;28;20203;-60
2023/01/12 03:10:41;;;;;;;2.72;1.48;;;15.70;58.50;;;;;;5052993;28;20664;-60
2023/01/12 03:13:11;;;;;;;3.65;1.48;;;15.60;58.50;;;;;;5053055;28;20179;-60
2023/01/12 03:15:38;;;;;;;4.63;1.30;;;15.60;58.50;;;;;;5053328;28;20250;-60
2023/01/12 03:18:27;;;;;;;3.85;1.60;;;15.60;58.50;;;;;;5053364;28;20229;-61
2023/01/12 03:21:04;;;;;;;3.05;1.42;;;15.60;58.50;;;;;;5052053;28;20227;-60
2023/01/12 03:24:09;;;;;;;2.90;1.38;;;15.60;58.50;;;;;;5053536;28;20179;-60
2023/01/12 03:26:37;;;;;;;3.10;1.33;;;15.60;58.50;;;;;;5053622;28;20211;-60
2023/01/12 03:29:18;;;;;;;3.10;1.65;;;15.60;58.50;;;;;;5053618;28;20191;-60
2023/01/12 03:31:43;;;;;;;2.95;1.63;;;15.60;58.50;;;;;;5053024;28;20179;-60
2023/01/12 03:34:09;;;;;;;5.47;1.65;;;15.60;58.50;;;;;;5052428;28;20178;-60
2023/01/12 03:36:47;;;;;;;3.78;1.73;;;15.60;58.50;;;;;;5052775;28;20171;-61
2023/01/12 03:39:19;;;;;;;2.38;1.30;;;15.50;58.50;;;;;;5053012;28;20229;-61
2023/01/12 03:41:56;;;;;;;3.95;1.25;;;15.50;58.50;;;;;;5051033;28;20634;-61
2023/01/12 03:44:45;;;;;;;2.97;1.38;;;15.50;58.50;;;;;;5054199;28;20300;-60
2023/01/12 03:47:23;;;;;;;2.95;1.40;;;15.50;58.50;;;;;;5052890;28;20179;-60
2023/01/12 03:49:52;;;;;;;3.40;1.40;;;15.50;58.50;;;;;;5051767;28;20648;-60
2023/01/12 03:52:18;;;;;;;2.13;1.30;;;15.50;58.50;;;;;;5052529;28;20179;-60
2023/01/12 03:54:43;;;;;;;2.45;1.27;;;15.50;58.50;;;;;;5052458;28;20228;-60
2023/01/12 03:57:09;;;;;;;2.70;1.52;;;15.50;58.60;;;;;;5051949;28;20607;-60
2023/01/12 03:59:35;;;;;;;2.85;1.40;;;15.50;58.60;;;;;;5052182;28;20226;-60
2023/01/12 04:02:01;;;;;;;3.90;1.77;;;15.50;58.60;;;;;;5053015;28;20175;-61
2023/01/12 04:04:26;;;;;;;2.80;1.20;;;15.50;58.60;;;;;;5053706;28;20250;-61
2023/01/12 04:06:52;;;;;;;3.90;1.67;;;15.50;58.60;;;;;;5053313;28;20714;-61
2023/01/12 04:09:18;;;;;;;4.70;1.40;;;15.50;58.60;;;;;;5053028;28;20243;-61
2023/01/12 04:14:44;;;;;;;3.53;1.63;;;15.50;58.60;;;;;;5011313;28;20180;-60
2023/01/12 04:17:12;;;;;;;4.32;1.80;;;15.50;58.70;;;;;;5044125;28;20534;-61
2023/01/12 04:19:38;;;;;;;2.47;1.50;;;15.50;58.70;;;;;;5052935;28;20565;-60
2023/01/12 04:24:47;;;;;;;2.80;1.20;;;15.50;58.70;;;;;;5052158;28;20178;-60
2023/01/12 04:27:16;;;;;;;4.93;1.48;;;15.50;58.70;;;;;;5053350;28;20167;-60
2023/01/12 04:29:42;;;;;;;3.85;1.55;;;15.40;58.70;;;;;;5052794;28;20183;-60
2023/01/12 04:32:11;;;;;;;3.97;1.42;;;15.40;58.60;;;;;;5052377;28;20182;-61
2023/01/12 04:34:38;;;;;;;4.65;1.92;;;15.40;58.60;;;;;;5052517;28;20653;-60
2023/01/12 04:37:03;;;;;;;2.40;1.45;;;15.50;58.70;;;;;;5052779;28;20700;-61
2023/01/12 04:39:29;;;;;;;3.05;1.42;;;15.40;58.70;;;;;;5052711;28;20231;-61
2023/01/12 04:41:54;;;;;;;3.10;1.67;;;15.40;58.70;;;;;;5052736;28;20186;-59
2023/01/12 04:44:20;;;;;;;3.28;1.55;;;15.40;58.70;;;;;;5052319;28;20649;-58
2023/01/12 04:46:49;;;;;;;2.50;1.27;;;15.40;58.70;;;;;;5052768;28;20171;-61
2023/01/12 04:49:15;;;;;;;2.35;1.20;;;15.40;58.70;;;;;;5053012;28;20209;-60
2023/01/12 04:51:40;;;;;;;3.40;1.40;;;15.40;58.70;;;;;;5051840;28;20202;-61
2023/01/12 04:54:06;;;;;;;2.42;1.27;;;15.40;58.70;;;;;;5053070;28;20167;-61
2023/01/12 04:56:31;;;;;;;2.42;1.38;;;15.40;58.70;;;;;;5052535;28;20248;-60
2023/01/12 04:58:59;;;;;;;3.50;1.38;;;15.40;58.70;;;;;;5051870;28;20600;-58
2023/01/12 05:01:24;;;;;;;4.43;1.60;;;15.40;58.70;;;;;;5052913;28;20174;-58
2023/01/12 05:03:51;;;;;;;4.00;1.48;;;15.40;58.60;;;;;;5052653;28;21095;-59
2023/01/12 05:06:16;;;;;;;5.93;1.83;;;15.40;58.70;;;;;;5050660;28;20175;-59
2023/01/12 05:11:27;;;;;;;3.85;1.40;;;15.40;58.70;;;;;;5052671;28;20660;-58
2023/01/12 05:13:53;;;;;;;4.18;1.40;;;15.40;58.70;;;;;;5051743;28;20171;-59
2023/01/12 05:16:19;;;;;;;4.50;1.55;;;15.30;58.70;;;;;;5052818;28;20179;-59
2023/01/12 05:18:44;;;;;;;4.35;1.50;;;15.30;58.70;;;;;;5052392;28;20203;-59
2023/01/12 05:21:11;;;;;;;2.83;1.23;;;15.40;58.80;;;;;;5051748;28;20288;-59
2023/01/12 05:23:36;;;;;;;3.47;1.52;;;15.30;58.80;;;;;;5052223;28;20705;-59
2023/01/12 05:26:03;;;;;;;3.42;1.50;;;15.30;58.80;;;;;;5052422;28;20274;-58
2023/01/12 05:28:28;;;;;;;2.40;1.48;;;15.30;58.80;;;;;;5052004;28;20175;-59
2023/01/12 05:30:54;;;;;;;3.78;1.23;;;15.30;58.80;;;;;;5052343;28;20182;-59
2023/01/12 05:33:19;;;;;;;1.48;1.20;;;15.30;58.80;;;;;;5052294;28;20202;-59
2023/01/12 05:35:45;;;;;;;3.97;1.60;;;15.30;58.80;;;;;;5051899;28;20518;-59
2023/01/12 05:38:11;;;;;;;4.93;1.60;;;15.30;58.80;;;;;;5052484;28;20612;-59
2023/01/12 05:40:36;;;;;;;3.83;1.40;;;15.30;58.90;;;;;;5051172;28;20269;-59
2023/01/12 05:45:46;;;;;;;2.85;1.77;;;15.30;58.90;;;;;;5032224;28;20186;-59
2023/01/12 05:48:12;;;;;;;2.85;1.60;;;15.30;58.90;;;;;;5031822;28;20180;-59
2023/01/12 05:50:37;;;;;;;4.22;1.60;;;15.30;58.90;;;;;;5032156;28;20171;-58
2023/01/12 05:53:03;;;;;;;2.97;1.33;;;15.30;58.90;;;;;;5032534;28;20176;-58
2023/01/12 05:55:28;;;;;;;3.05;1.48;;;15.30;58.90;;;;;;5031873;28;20195;-58
2023/01/12 05:57:54;;;;;;;3.40;1.25;;;15.30;58.90;;;;;;5032234;28;20220;-58
2023/01/12 06:00:20;;;;;;;3.00;1.40;;;15.30;58.90;;;;;;5032389;28;20302;-59
2023/01/12 06:02:45;;;;;;;2.20;1.20;;;15.30;58.90;;;;;;5031422;28;20325;-59
2023/01/12 06:05:11;;;;;;;3.47;1.27;;;15.40;58.90;;;;;;5033075;28;20184;-59
2023/01/12 06:07:36;;;;;;;2.25;1.10;;;15.40;58.80;;;;;;5035641;28;20168;-59
2023/01/12 06:10:03;;;;;;;2.95;1.23;;;15.40;58.80;;;;;;5035159;28;20183;-59
2023/01/12 06:15:15;;;;;;;2.15;1.13;;;15.60;59.40;;;;;;5035792;28;20666;-61
2023/01/12 06:17:41;;;;;;;1.58;0.90;;;15.70;58.70;;;;;;5034785;28;20195;-61
2023/01/12 06:20:07;;;;;;;2.03;1.10;;;15.80;58.60;;;;;;5035576;28;20238;-60
2023/01/12 06:22:33;;;;;;;2.40;1.30;;;15.90;58.50;;;;;;5035422;28;20183;-61
2023/01/12 06:24:58;;;;;;;3.10;1.48;;;16.00;59.10;;;;;;5035254;28;20176;-59
2023/01/12 06:27:24;;;;;;;1.75;1.23;;;16.00;58.30;;;;;;5035642;28;20175;-60
2023/01/12 06:29:50;;;;;;;1.77;1.08;;;16.10;58.10;;;;;;5034495;28;20172;-59
2023/01/12 06:32:15;;;;;;;3.15;1.40;;;16.20;58.00;;;;;;5035638;28;20642;-59
2023/01/12 06:34:41;;;;;;;3.30;1.33;;;16.20;58.00;;;;;;5034783;28;20191;-60
2023/01/12 06:37:07;;;;;;;1.50;0.85;;;16.30;57.90;;;;;;5035257;28;20172;-60
2023/01/12 06:39:33;;;;;;;2.97;1.00;;;16.30;57.80;;;;;;5034806;28;20701;-60
2023/01/12 06:44:42;;;;;;;1.75;1.17;;;16.40;57.50;;;;;;5034277;28;20178;-60
2023/01/12 06:47:08;;;;;;;2.05;0.90;;;16.40;57.50;;;;;;5035124;28;20167;-59
2023/01/12 06:49:33;;;;;;;2.53;1.20;;;16.40;57.50;;;;;;5034755;28;20180;-59
2023/01/12 06:51:59;;;;;;;5.53;1.25;;;16.40;57.60;;;;;;5034388;28;20584;-59
2023/01/12 06:54:24;;;;;;;3.20;1.20;;;16.40;57.70;;;;;;5035135;28;20172;-59
2023/01/12 06:56:50;;;;;;;1.67;0.95;;;16.30;57.70;;;;;;5034706;28;20726;-59
2023/01/12 06:59:15;;;;;;;1.70;0.80;;;16.30;57.70;;;;;;5033994;28;20629;-59
2023/01/12 07:01:41;;;;;;;2.42;0.77;;;16.30;57.90;;;;;;5034667;28;20187;-59
2023/01/12 07:04:07;;;;;;;1.38;0.90;;;16.20;57.80;;;;;;5034938;28;20171;-60
2023/01/12 07:06:32;;;;;;;1.95;0.90;;;16.40;57.90;;;;;;5033739;28;20198;-60
2023/01/12 07:08:58;;;;;;;1.05;0.80;;;16.40;57.90;;;;;;5034695;28;20241;-59
2023/01/12 07:11:23;;;;;;;1.48;0.70;;;16.60;57.80;;;;;;5034640;28;20171;-59
2023/01/12 07:13:49;;;;;;;2.22;1.00;;;16.80;57.30;;;;;;5033664;28;20176;-59
2023/01/12 07:16:14;;;;;;;1.15;0.80;;;17.10;56.80;;;;;;5034036;28;20175;-59
2023/01/12 07:18:40;;;;;;;0.93;0.80;;;17.30;56.60;;;;;;5034220;28;20278;-60
2023/01/12 07:21:06;;;;;;;1.98;0.88;;;17.50;56.30;;;;;;5033753;28;20231;-59
2023/01/12 07:23:32;;;;;;;1.75;0.80;;;17.60;56.00;;;;;;5034288;28;20172;-59
2023/01/12 07:25:57;;;;;;;2.33;0.77;;;17.80;55.70;;;;;;5033873;28;20186;-58
2023/01/12 07:28:23;;;;;;;1.33;0.80;;;17.90;55.50;;;;;;5034530;28;20187;-59
2023/01/12 07:30:48;;;;;;;2.08;0.93;;;18.00;55.20;;;;;;5034058;28;20167;-59
2023/01/12 07:33:14;;;;;;;1.17;0.70;;;18.00;55.10;;;;;;5033607;28;20175;-59
2023/01/12 07:35:40;;;;;;;0.82;0.60;;;18.00;55.10;;;;;;5033878;28;20168;-60
2023/01/12 07:38:06;;;;;;;2.05;0.90;;;18.00;55.00;;;;;;5034307;28;20259;-59
2023/01/12 07:40:31;;;;;;;1.50;0.63;;;18.00;55.10;;;;;;5033057;28;20725;-60
2023/01/12 07:43:01;;;;;;;1.33;0.82;;;18.00;55.10;;;;;;5034086;28;20271;-60
2023/01/12 07:45:27;;;;;;;1.00;0.65;;;17.90;55.20;;;;;;5034006;28;20176;-60
2023/01/12 07:47:53;;;;;;;1.00;0.90;;;17.80;55.30;;;;;;5032019;28;20187;-60
2023/01/12 07:50:20;;;;;;;1.17;0.60;;;17.80;55.50;;;;;;5034161;28;20179;-59
2023/01/12 07:52:45;;;;;;;0.88;0.70;;;17.80;55.60;;;;;;5033869;28;20176;-59
2023/01/12 07:55:11;;;;;;;1.20;0.75;;;17.80;55.60;;;;;;5033218;28;20178;-59
2023/01/12 07:57:36;;;;;;;1.08;0.63;;;17.80;55.60;;;;;;5033580;28;20164;-59
2023/01/12 08:00:04;;;;;;;0.75;0.50;;;17.80;55.60;;;;;;5033586;28;20216;-60
2023/01/12 08:02:30;;;;;;;1.90;0.82;;;17.80;55.60;;;;;;5033020;28;20626;-60
2023/01/12 08:04:55;;;;;;;0.65;0.57;;;17.80;55.70;;;;;;5033693;28;20187;-59
2023/01/12 08:07:21;;;;;;;0.88;0.50;;;17.80;55.70;;;;;;5033754;28;20631;-59
2023/01/12 08:09:46;;;;;;;1.02;0.70;;;17.80;55.70;;;;;;5032605;28;20176;-58
2023/01/12 08:12:12;;;;;;;1.02;0.68;;;17.80;55.70;;;;;;5033498;28;20580;-71
2023/01/12 08:14:39;;;;;;;0.65;0.55;;;17.80;55.70;;;;;;5035094;28;20182;-69
2023/01/12 08:17:13;;;;;;;2.72;1.00;;;17.80;55.80;;;;;;5033046;28;20184;-70
2023/01/12 08:19:41;;;;;;;4.57;0.60;;;17.80;55.80;;;;;;5032046;28;20224;-75
2023/01/12 08:22:11;;;;;;;1.88;0.70;;;17.80;56.00;;;;;;5032324;28;20182;-69
2023/01/12 08:24:40;;;;;;;1.35;0.70;;;17.70;56.10;;;;;;5031968;28;20184;-68
2023/01/12 08:27:06;;;;;;;2.83;0.80;;;17.70;56.40;;;;;;5032079;28;20180;-68
2023/01/12 08:29:39;;;;;;;2.70;0.90;;;17.60;56.60;;;;;;5031093;28;20963;-70
2023/01/12 08:32:05;;;;;;;1.25;0.73;;;17.50;57.00;;;;;;5033366;28;20199;-70
2023/01/12 08:34:31;;;;;;;3.42;0.70;;;17.40;57.20;;;;;;5032927;28;20583;-71
2023/01/12 08:36:57;;;;;;;1.50;0.60;;;17.40;57.30;;;;;;5032422;28;20222;-70
2023/01/12 08:39:23;;;;;;;3.40;0.75;;;17.40;57.50;;;;;;5031470;28;20239;-72
2023/01/12 08:41:48;;;;;;;1.38;0.60;;;17.40;57.50;;;;;;5030268;28;20307;-72
2023/01/12 08:44:14;;;;;;;1.05;0.55;;;17.40;57.60;;;;;;5031387;28;20172;-71
2023/01/12 08:46:53;;;;;;;2.42;0.95;;;17.40;57.60;;;;;;5031705;28;20168;-72
2023/01/12 08:49:21;;;;;;;1.77;0.70;;;17.50;57.60;;;;;;5032048;28;20542;-73
2023/01/12 08:51:46;;;;;;;2.47;0.88;;;17.50;57.60;;;;;;5031002;28;20176;-71
2023/01/12 08:54:13;;;;;;;2.13;0.75;;;17.40;57.60;;;;;;5031854;28;20661;-72
2023/01/12 08:56:39;;;;;;;1.92;0.60;;;17.50;57.70;;;;;;5032709;28;20555;-72
2023/01/12 08:59:05;;;;;;;1.33;0.85;;;17.40;57.80;;;;;;5032072;28;20709;-72
2023/01/12 09:01:30;;;;;;;1.67;0.57;;;17.40;57.80;;;;;;5032659;28;20171;-73
2023/01/12 09:03:56;;;;;;;1.55;0.55;;;17.40;57.80;;;;;;5032636;28;20745;-71
2023/01/12 09:06:24;;;;;;;1.20;0.70;;;17.30;58.00;;;;;;5032202;28;20267;-70
2023/01/12 09:08:54;;;;;;;1.92;0.57;;;17.20;58.00;;;;;;5032350;28;20180;-71
2023/01/12 09:11:19;;;;;;;0.88;0.45;;;17.20;58.20;;;;;;5033021;28;20176;-71
2023/01/12 09:13:45;;;;;;;1.33;0.77;;;17.10;58.20;;;;;;5031957;28;20183;-71
2023/01/12 09:16:13;;;;;;;0.88;0.60;;;17.20;58.50;;;;;;5032917;28;20183;-70
2023/01/12 09:18:39;;;;;;;0.98;0.60;;;17.20;58.50;;;;;;5031734;28;20176;-71
2023/01/12 09:21:07;;;;;;;0.88;0.73;;;17.20;58.40;;;;;;5032527;28;20227;-71
2023/01/12 09:23:33;;;;;;;1.20;0.57;;;17.30;58.40;;;;;;5032453;28;20350;-71
2023/01/12 09:26:05;;;;;;;1.67;0.70;;;17.30;58.20;;;;;;5031935;28;20686;-72
2023/01/12 09:28:31;;;;;;;1.40;0.77;;;17.30;58.30;;;;;;5032563;28;20184;-73
2023/01/12 09:31:07;;;;;;;3.03;0.88;;;17.30;58.20;;;;;;5032565;28;20172;-71
2023/01/12 09:33:34;;;;;;;1.50;0.85;;;17.40;58.10;;;;;;5031663;28;20179;-72
2023/01/12 09:36:04;;;;;;;1.05;0.68;;;17.40;58.10;;;;;;5032526;28;20179;-71
2023/01/12 09:38:30;;;;;;;1.58;0.70;;;17.40;58.10;;;;;;5032673;28;20188;-73
2023/01/12 09:41:00;;;;;;;1.70;0.70;;;17.50;58.00;;;;;;5034049;28;20172;-72
2023/01/12 09:49:20;;;;;;;0.65;0.50;;;17.60;57.80;;;;;;5035355;28;20183;-72
2023/01/12 09:51:53;;;;;;;1.38;0.60;;;17.60;57.90;;;;;;5036066;28;20365;-71
2023/01/12 09:54:18;;;;;;;1.17;0.60;;;17.60;57.80;;;;;;5034614;28;20237;-72
2023/01/12 09:56:51;;;;;;;1.00;0.57;;;17.50;57.80;;;;;;5035629;28;20259;-73
2023/01/12 09:59:35;;;;;;;1.80;0.50;;;17.50;57.90;;;;;;5035181;28;20266;-72
2023/01/12 10:02:00;;;;;;;0.90;0.70;;;17.40;57.90;;;;;;5035439;28;20175;-73
2023/01/12 10:04:26;;;;;;;0.30;0.30;;;17.40;58.10;;;;;;5036004;28;20673;-72
2023/01/12 10:06:52;;;;;;;1.23;0.60;;;17.30;58.30;;;;;;5035596;28;20191;-72
2023/01/12 10:09:18;;;;;;;1.83;0.80;;;17.30;58.40;;;;;;5035280;28;20249;-73
2023/01/12 10:11:56;;;;;;;1.70;0.63;;;17.40;58.30;;;;;;5034408;28;20178;-71
2023/01/12 10:14:33;;;;;;;1.25;0.60;;;17.40;58.40;;;;;;5035799;28;20716;-72
2023/01/12 10:17:16;;;;;;;0.90;0.45;;;17.40;58.30;;;;;;5034143;28;20318;-72
2023/01/12 10:20:12;;;;;;;1.05;0.50;;;17.40;58.40;;;;;;5034008;28;20211;-69
2023/01/12 10:22:52;;;;;;;0.57;0.55;;;17.40;58.30;;;;;;5034870;28;20696;-72
2023/01/12 10:25:20;;;;;;;0.65;0.43;;;17.50;58.20;;;;;;5035639;28;20210;-73
2023/01/12 10:27:47;;;;;;;0.90;0.55;;;17.50;58.10;;;;;;5035366;28;20175;-73
2023/01/12 10:30:16;;;;;;;1.70;0.88;;;17.50;58.10;;;;;;5034785;28;20204;-72
2023/01/12 10:32:41;;;;;;;1.13;0.70;;;17.40;58.20;;;;;;5035430;28;20172;-72
2023/01/12 10:35:12;;;;;;;0.93;0.50;;;17.40;58.30;;;;;;5035611;28;20518;-71
2023/01/12 10:37:46;;;;;;;1.00;0.40;;;17.30;58.40;;;;;;5033253;28;20176;-72
2023/01/12 10:40:27;;;;;;;1.20;0.57;;;17.30;58.50;;;;;;5035188;28;20220;-72
2023/01/12 10:43:30;;;;;;;1.10;0.60;;;17.30;58.50;;;;;;5033269;28;20179;-73
2023/01/12 10:46:04;;;;;;;0.40;0.35;;;17.30;58.60;;;;;;5035326;28;20266;-74
2023/01/12 10:48:30;;;;;;;1.13;0.55;;;17.30;58.60;;;;;;5035410;28;20263;-72
2023/01/12 10:51:00;;;;;;;0.57;0.40;;;17.30;58.60;;;;;;5034106;28;20255;-72
2023/01/12 10:53:30;;;;;;;1.30;0.60;;;17.40;58.60;;;;;;5035023;28;20176;-72
2023/01/12 10:55:55;;;;;;;0.70;0.45;;;17.40;58.50;;;;;;5034612;28;20176;-71
2023/01/12 10:58:24;;;;;;;0.75;0.38;;;17.40;58.40;;;;;;5034490;28;20172;-72
2023/01/12 11:00:50;;;;;;;0.50;0.50;;;17.40;58.50;;;;;;5033432;28;20211;-72
2023/01/12 11:03:33;;;;;;;1.00;0.60;;;17.30;58.60;;;;;;5033714;28;20229;-72
2023/01/12 11:06:15;;;;;;;0.40;0.40;;;17.30;58.70;;;;;;5034214;28;20552;-72
2023/01/12 11:08:41;;;;;;;0.90;0.50;;;17.20;58.70;;;;;;5034702;28;20180;-71
2023/01/12 11:11:33;;;;;;;1.05;0.60;;;17.20;58.80;;;;;;5034035;28;20657;-71
2023/01/12 11:14:00;;;;;;;0.68;0.47;;;17.20;58.80;;;;;;5033539;28;20180;-71
2023/01/12 11:16:30;;;;;;;0.55;0.30;;;17.20;58.90;;;;;;5033620;28;20191;-71
2023/01/12 11:19:16;;;;;;;0.95;0.75;;;17.20;59.00;;;;;;5033725;28;20667;-71
2023/01/12 11:21:47;;;;;;;1.20;0.50;;;17.20;58.90;;;;;;5034061;28;20251;-71
2023/01/12 11:24:25;;;;;;;0.85;0.50;;;17.30;58.90;;;;;;5033402;28;20175;-71
2023/01/12 11:27:08;;;;;;;0.75;0.45;;;17.20;58.80;;;;;;5033617;28;20237;-73
2023/01/12 11:29:40;;;;;;;0.93;0.50;;;17.30;58.70;;;;;;5032992;28;20175;-73
2023/01/12 11:32:14;;;;;;;1.40;0.40;;;17.30;58.70;;;;;;5032634;28;20215;-73
2023/01/12 11:35:03;;;;;;;0.63;0.55;;;17.20;58.80;;;;;;5032885;28;20171;-72
2023/01/12 11:37:28;;;;;;;0.57;0.30;;;17.20;58.90;;;;;;5033127;28;20226;-72
2023/01/12 11:40:20;;;;;;;0.82;0.52;;;17.10;59.00;;;;;;5032015;28;20212;-72
2023/01/12 11:45:51;;;;;;;0.50;0.50;;;17.10;59.20;;;;;;5033052;28;20693;-73
2023/01/12 11:48:21;;;;;;;0.55;0.40;;;17.20;59.20;;;;;;5032176;28;20626;-72
2023/01/12 11:50:47;;;;;;;0.50;0.40;;;17.20;59.10;;;;;;5032569;28;20180;-72
2023/01/12 11:53:23;;;;;;;0.40;0.40;;;17.20;59.20;;;;;;5033262;28;20187;-71
2023/01/12 11:56:04;;;;;;;0.40;0.40;;;17.30;59.10;;;;;;5032285;28;20178;-73
2023/01/12 11:58:51;;;;;;;1.15;0.60;;;17.20;59.00;;;;;;5033817;28;20541;-72
2023/01/12 12:01:48;;;;;;;0.40;0.40;;;17.20;59.00;;;;;;5033054;28;20560;-72
2023/01/12 12:04:20;;;;;;;1.08;0.40;;;17.20;59.10;;;;;;5031971;28;20631;-71
2023/01/12 12:07:02;;;;;;;0.28;0.28;;;17.10;59.20;;;;;;5032345;28;20249;-73
2023/01/12 12:09:34;;;;;;;0.57;0.30;;;17.10;59.30;;;;;;5031703;28;20186;-71
2023/01/12 12:12:04;;;;;;;0.40;0.40;;;17.00;59.20;;;;;;5032407;28;20610;-71
2023/01/12 12:14:48;;;;;;;0.73;0.40;;;17.10;59.30;;;;;;5031597;28;20175;-71
2023/01/12 12:17:32;;;;;;;0.40;0.30;;;17.20;59.30;;;;;;5033613;28;20168;-70
2023/01/12 12:20:10;;;;;;;0.68;0.40;;;17.20;59.20;;;;;;5033468;28;20358;-71
2023/01/12 12:23:03;;;;;;;1.15;0.90;;;17.20;59.20;;;;;;5031196;28;20186;-72
2023/01/12 12:26:20;;;;;;;0.68;0.40;;;17.10;59.20;;;;;;5033700;28;20191;-72
2023/01/12 12:29:16;;;;;;;0.82;0.60;;;17.10;59.30;;;;;;5010490;28;20662;-72
2023/01/12 12:31:53;;;;;;;0.30;0.30;;;17.10;59.30;;;;;;5033034;28;20183;-71
2023/01/12 12:34:51;;;;;;;0.47;0.38;;;17.10;59.30;;;;;;5033234;28;20597;-72
2023/01/12 12:37:39;;;;;;;0.20;0.20;;;17.10;59.30;;;;;;5028134;28;20191;-71
2023/01/12 12:40:09;;;;;;;1.08;0.50;;;17.00;59.40;;;;;;5033195;28;20265;-75
2023/01/12 12:46:00;;;;;;;0.52;0.38;;;17.10;59.50;;;;;;5032056;28;20174;-71
2023/01/12 12:48:43;;;;;;;1.00;0.77;;;17.10;59.50;;;;;;5032463;28;20273;-71
2023/01/12 12:51:09;;;;;;;0.60;0.35;;;17.20;59.40;;;;;;5030720;28;20318;-72
2023/01/12 12:53:51;;;;;;;0.55;0.40;;;17.20;59.40;;;;;;5033047;28;20259;-73
2023/01/12 12:56:17;;;;;;;0.35;0.35;;;17.10;59.30;;;;;;5031942;28;20172;-74
2023/01/12 12:58:46;;;;;;;0.68;0.50;;;17.10;59.50;;;;;;5030640;28;20175;-73
2023/01/12 13:01:18;;;;;;;0.63;0.40;;;17.10;59.50;;;;;;5033252;28;20295;-75
2023/01/12 13:03:50;;;;;;;0.45;0.45;;;17.10;59.60;;;;;;5031787;28;20302;-75
2023/01/12 13:06:20;;;;;;;0.60;0.30;;;17.10;59.60;;;;;;5032740;28;20183;-73
2023/01/12 13:08:48;;;;;;;0.70;0.40;;;17.10;59.70;;;;;;5032363;28;20175;-72
2023/01/12 13:11:13;;;;;;;0.65;0.52;;;17.10;59.70;;;;;;5030903;28;20183;-74
2023/01/12 13:13:58;;;;;;;0.30;0.30;;;17.10;59.60;;;;;;5032492;28;20187;-73
2023/01/12 13:16:28;;;;;;;0.30;0.30;;;17.20;59.60;;;;;;5034759;28;20254;-75
2023/01/12 13:18:53;;;;;;;0.60;0.60;;;17.20;59.60;;;;;;5035581;28;20638;-72
2023/01/12 13:21:25;;;;;;;0.30;0.30;;;17.20;59.50;;;;;;5036730;28;20226;-73
2023/01/12 13:23:51;;;;;;;0.30;0.30;;;17.20;59.60;;;;;;5036051;28;20728;-78
2023/01/12 13:26:31;;;;;;;0.75;0.43;;;17.20;59.60;;;;;;5035090;28;20254;-77
2023/01/12 13:29:22;;;;;;;0.68;0.40;;;17.10;59.70;;;;;;5036647;28;20254;-76
2023/01/12 13:31:57;;;;;;;1.17;0.60;;;17.00;59.80;;;;;;5035769;28;20180;-76
2023/01/12 13:34:41;;;;;;;0.28;0.22;;;17.00;60.00;;;;;;5036660;28;20179;-78
2023/01/12 13:37:35;;;;;;;0.32;0.32;;;17.00;60.20;;;;;;5060492;28;20175;-77
2023/01/12 13:40:16;;;;;;;0.50;0.30;;;17.10;60.20;;;;;;5058172;28;20219;-78
2023/01/12 13:45:27;;;;;;;1.00;0.32;;;17.10;59.90;;;;;;5059369;28;20207;-78